Time;durP1;ratioP1;P1;durP2;ratioP2;P2;SDS_P1;SDS_P2;PMS_P1;PMS_P2;Temp;Humidity;BMP_temperature;BMP_pressure;BME280_temperature;BME280_humidity;BME280_pressure;Samples;Min_cycle;Max_cycle;Signal;HPM_P1;HPM_P2
2022/02/10 00:20:56;;;;;;;;;;;7.40;99.90;;;;;;5053179;28;19959;-79
2022/02/10 00:24:04;;;;;;;;;;;7.50;99.90;;;;;;5053445;28;19908;-79
2022/02/10 00:36:44;;;;;;;;;;;7.60;99.90;;;;;;5057154;28;19970;-79
2022/02/10 00:41:54;;;;;;;;;;;7.60;99.90;;;;;;5056854;28;19947;-79
2022/02/10 00:44:19;;;;;;;;;;;7.70;99.90;;;;;;5057075;28;19908;-79
2022/02/10 00:46:45;;;;;;;;;;;7.70;99.90;;;;;;5057060;28;19963;-79
2022/02/10 00:49:10;;;;;;;;;;;7.80;99.90;;;;;;5056981;28;19936;-80
2022/02/10 00:51:36;;;;;;;;;;;7.80;99.90;;;;;;5056944;28;19916;-79
2022/02/10 00:54:02;;;;;;;;;;;7.80;99.90;;;;;;5056785;28;19913;-79
2022/02/10 00:56:28;;;;;;;;;;;7.80;99.90;;;;;;5057253;28;19909;-80
2022/02/10 00:59:11;;;;;;;;;;;7.80;99.90;;;;;;5056754;28;19916;-79
2022/02/10 01:07:13;;;;;;;;;;;7.90;99.90;;;;;;5056410;28;19959;-79
2022/02/10 01:12:42;;;;;;;;;;;7.90;99.90;;;;;;5056811;28;19916;-79
2022/02/10 01:31:15;;;;;;;;;;;8.20;99.90;;;;;;5056304;28;19994;-79
2022/02/10 01:33:42;;;;;;;;;;;8.20;99.90;;;;;;5056194;28;19909;-79
2022/02/10 01:36:08;;;;;;;;;;;8.20;99.90;;;;;;5056032;28;19916;-79
2022/02/10 01:38:34;;;;;;;;;;;8.10;99.90;;;;;;5038226;28;20277;-80
2022/02/10 02:05:43;;;;;;;;;;;8.40;99.90;;;;;;5055428;28;19915;-79
2022/02/10 02:08:10;;;;;;;;;;;8.40;99.90;;;;;;5037203;28;19912;-79
2022/02/10 02:10:35;;;;;;;;;;;8.50;99.90;;;;;;5037565;28;19908;-79
2022/02/10 02:13:02;;;;;;;;;;;8.60;99.90;;;;;;5055692;28;19909;-79
2022/02/10 02:15:28;;;;;;;;;;;8.50;99.90;;;;;;5055315;28;19996;-79
2022/02/10 02:17:53;;;;;;;;;;;8.50;99.90;;;;;;5055422;28;19948;-79
2022/02/10 02:20:19;;;;;;;;;;;8.50;99.90;;;;;;5055179;28;19939;-79
2022/02/10 02:22:45;;;;;;;;;;;8.30;99.90;;;;;;5055249;28;19909;-80
2022/02/10 02:25:10;;;;;;;;;;;8.40;99.90;;;;;;5055220;28;20370;-79
2022/02/10 02:27:46;;;;;;;;;;;8.30;99.90;;;;;;5037306;28;19913;-79
2022/02/10 02:30:20;;;;;;;;;;;8.30;99.90;;;;;;5055095;28;19909;-79
2022/02/10 02:33:08;;;;;;;;;;;8.40;99.90;;;;;;5055228;28;19919;-80
2022/02/10 02:38:31;;;;;;;;;;;8.20;99.90;;;;;;5055230;28;19954;-79
2022/02/10 03:08:17;;;;;;;;;;;8.20;99.90;;;;;;5054609;28;19909;-79
2022/02/10 03:13:15;;;;;;;;;;;8.40;99.90;;;;;;5054634;28;19908;-79
2022/02/10 03:16:02;;;;;;;;;;;8.30;99.90;;;;;;5036188;28;19920;-80
2022/02/10 04:29:34;;;;;;;;;;;8.50;99.90;;;;;;5053833;28;20380;-79
2022/02/10 05:04:16;;;;;;;;;;;8.50;99.90;;;;;;5052859;28;20336;-79
2022/02/10 05:07:15;;;;;;;;;;;8.30;99.90;;;;;;5052800;28;20004;-79
2022/02/10 05:13:41;;;;;;;;;;;8.40;99.90;;;;;;5019328;28;19995;-79
2022/02/10 05:16:02;;;;;;;;;;;8.50;99.90;;;;;;5053612;28;19939;-79
2022/02/10 05:18:36;;;;;;;;;;;8.50;99.90;;;;;;5056447;28;19963;-80
2022/02/10 05:34:09;;;;;;;;;;;8.60;99.90;;;;;;5056382;28;19916;-79
2022/02/10 05:36:37;;;;;;;;;;;8.60;99.90;;;;;;5056483;28;19909;-79
2022/02/10 05:39:18;;;;;;;;;;;8.70;99.90;;;;;;5056368;28;20285;-79
2022/02/10 06:00:53;;;;;;;;;;;8.60;99.90;;;;;;5055709;28;20320;-79
2022/02/10 06:45:50;;;;;;;;;;;8.40;99.90;;;;;;5055288;28;19962;-79
2022/02/10 06:58:43;;;;;;;;;;;8.10;99.90;;;;;;5054554;28;19965;-79
2022/02/10 07:06:27;;;;;;;;;;;8.30;99.90;;;;;;5054418;28;20327;-79
2022/02/10 07:12:07;;;;;;;;;;;8.30;99.90;;;;;;5054631;28;19916;-80
2022/02/10 07:54:46;;;;;;;;;;;8.70;99.90;;;;;;5053769;28;19917;-79
2022/02/10 07:57:24;;;;;;;;;;;8.60;99.90;;;;;;5035675;28;19917;-79
2022/02/10 08:00:21;;;;;;;;;;;8.60;99.90;;;;;;5054134;28;19913;-79
2022/02/10 08:28:39;;;;;;;;;;;9.10;99.90;;;;;;5053477;28;19916;-80
2022/02/10 09:00:54;;;;;;;;;;;10.00;99.90;;;;;;5056744;28;19917;-80
2022/02/10 09:08:14;;;;;;;;;;;10.20;99.90;;;;;;5056668;28;19982;-80
2022/02/10 09:21:46;;;;;;;;;;;10.30;99.90;;;;;;4975870;28;19918;-80
2022/02/10 10:04:45;;;;;;;;;;;13.40;99.90;;;;;;5055609;28;19916;-80
2022/02/10 10:10:20;;;;;;;;;;;13.90;99.90;;;;;;5055770;28;19924;-80
2022/02/10 10:18:58;;;;;;;;;;;13.80;99.90;;;;;;5055796;28;19915;-80
2022/02/10 10:56:45;;;;;;;;;;;18.30;89.10;;;;;;5055147;28;20349;-78
2022/02/10 11:00:13;;;;;;;;;;;17.40;90.50;;;;;;5054789;28;19940;-78
2022/02/10 11:43:52;;;;;;;;;;;28.00;50.70;;;;;;5053728;28;19974;-78
2022/02/10 12:38:27;;;;;;;;;;;17.80;72.70;;;;;;5057258;28;20003;-77
2022/02/10 13:30:16;;;;;;;;;;;19.80;70.80;;;;;;5056802;28;19909;-80
2022/02/10 13:33:27;;;;;;;;;;;18.30;72.70;;;;;;5056116;28;19920;-80
2022/02/10 14:09:00;;;;;;;;;;;14.60;92.30;;;;;;5055923;28;19916;-79
2022/02/10 14:13:51;;;;;;;;;;;12.80;99.90;;;;;;5055681;28;19916;-79
2022/02/10 14:18:51;;;;;;;;;;;12.40;99.90;;;;;;5035996;28;19917;-79
2022/02/10 14:21:24;;;;;;;;;;;12.00;99.90;;;;;;5034052;28;20022;-79
2022/02/10 14:28:43;;;;;;;;;;;11.60;99.90;;;;;;5035765;28;19916;-79
2022/02/10 14:31:09;;;;;;;;;;;11.40;99.90;;;;;;5035479;28;19948;-79
2022/02/10 14:33:36;;;;;;;;;;;11.40;99.90;;;;;;5035435;28;19955;-79
2022/02/10 14:36:11;;;;;;;;;;;11.20;99.90;;;;;;5035611;28;19963;-79
2022/02/10 15:29:44;;;;;;;;;;;10.40;99.90;;;;;;5054041;28;19915;-79
2022/02/10 15:46:18;;;;;;;;;;;10.40;99.90;;;;;;5053734;28;19931;-79
2022/02/10 15:51:40;;;;;;;;;;;10.30;99.90;;;;;;5053632;28;19932;-79
2022/02/10 16:10:48;;;;;;;;;;;10.20;99.90;;;;;;5053863;28;19915;-79
2022/02/10 16:18:44;;;;;;;;;;;9.80;99.90;;;;;;5053693;28;19992;-79
2022/02/10 16:21:10;;;;;;;;;;;9.90;99.90;;;;;;5035326;28;19920;-79
2022/02/10 16:23:35;;;;;;;;;;;10.00;99.90;;;;;;5053557;28;19959;-79
2022/02/10 16:26:10;;;;;;;;;;;9.90;99.90;;;;;;5035600;28;19939;-79
2022/02/10 16:28:38;;;;;;;;;;;9.70;99.90;;;;;;5053610;28;20423;-79
2022/02/10 16:31:03;;;;;;;;;;;9.50;99.90;;;;;;5053583;28;19909;-79
2022/02/10 16:33:31;;;;;;;;;;;9.50;99.90;;;;;;5053452;28;20285;-79
2022/02/10 16:35:59;;;;;;;;;;;9.40;99.90;;;;;;5053602;28;19920;-79
2022/02/10 16:38:25;;;;;;;;;;;9.40;99.90;;;;;;5053377;28;19909;-80
2022/02/10 16:40:51;;;;;;;;;;;9.40;99.90;;;;;;5035340;28;20440;-80
2022/02/10 16:43:17;;;;;;;;;;;9.30;99.90;;;;;;5053354;28;20008;-79
2022/02/10 16:45:43;;;;;;;;;;;9.40;99.90;;;;;;5053317;28;19908;-79
2022/02/10 16:48:10;;;;;;;;;;;9.40;99.90;;;;;;5053315;28;19909;-79
2022/02/10 16:50:36;;;;;;;;;;;9.30;99.90;;;;;;5053324;28;19909;-80
2022/02/10 16:53:08;;;;;;;;;;;9.40;99.90;;;;;;5053420;28;19916;-79
2022/02/10 17:06:05;;;;;;;;;;;8.90;99.90;;;;;;5053255;28;19930;-79
2022/02/10 17:27:23;;;;;;;;;;;8.70;99.90;;;;;;5056243;28;19920;-79
2022/02/10 17:53:01;;;;;;;;;;;8.70;99.90;;;;;;5055823;28;19915;-79
2022/02/10 17:55:28;;;;;;;;;;;8.60;99.90;;;;;;5037951;28;19966;-80
2022/02/10 17:57:53;;;;;;;;;;;8.40;99.90;;;;;;5056040;28;19908;-80
2022/02/10 18:00:25;;;;;;;;;;;8.60;99.90;;;;;;5055904;28;20388;-80
2022/02/10 18:02:55;;;;;;;;;;;8.70;99.90;;;;;;5056204;28;19909;-79
2022/02/10 18:06:04;;;;;;;;;;;8.60;99.90;;;;;;5056225;28;19913;-80
2022/02/10 18:08:21;;;;;;;;;;;8.70;99.90;;;;;;5055540;28;19913;-79
2022/02/10 18:13:41;;;;;;;;;;;8.70;99.90;;;;;;5055760;28;19908;-79
2022/02/10 18:16:14;;;;;;;;;;;8.60;99.90;;;;;;5037658;28;20442;-80
2022/02/10 18:18:47;;;;;;;;;;;8.30;99.90;;;;;;5037484;28;19908;-80
2022/02/10 18:24:03;;;;;;;;;;;8.20;99.90;;;;;;5055493;28;19916;-79
2022/02/10 18:29:03;;;;;;;;;;;8.00;99.90;;;;;;5055461;28;20010;-79
2022/02/10 19:07:00;;;;;;;;;;;7.00;99.90;;;;;;5054470;28;19916;-79
2022/02/10 19:09:39;;;;;;;;;;;7.10;99.90;;;;;;5055093;28;19916;-79
2022/02/10 19:12:14;;;;;;;;;;;7.20;99.90;;;;;;5054843;28;19955;-79
2022/02/10 19:14:40;;;;;;;;;;;7.30;99.90;;;;;;5054635;28;19909;-80
2022/02/10 19:17:05;;;;;;;;;;;7.20;99.90;;;;;;5054473;28;20426;-79
2022/02/10 19:19:31;;;;;;;;;;;7.40;99.90;;;;;;5054512;28;19916;-80
2022/02/10 19:21:57;;;;;;;;;;;7.60;99.90;;;;;;5054406;28;19912;-79
2022/02/10 19:24:22;;;;;;;;;;;7.70;99.90;;;;;;5054606;28;19916;-80
2022/02/10 19:26:50;;;;;;;;;;;7.90;99.90;;;;;;5054702;28;20400;-80
2022/02/10 19:29:17;;;;;;;;;;;7.80;99.90;;;;;;5054279;28;19909;-79
2022/02/10 19:31:45;;;;;;;;;;;7.60;99.90;;;;;;5054472;28;19909;-80
2022/02/10 19:34:10;;;;;;;;;;;7.30;99.90;;;;;;5053525;28;19909;-79
2022/02/10 19:36:38;;;;;;;;;;;7.10;99.90;;;;;;5036331;28;19909;-80
2022/02/10 19:39:04;;;;;;;;;;;7.00;99.90;;;;;;5054477;28;19947;-79
2022/02/10 19:41:34;;;;;;;;;;;7.00;99.90;;;;;;5054025;28;19923;-79
2022/02/10 19:44:01;;;;;;;;;;;6.80;99.90;;;;;;5036151;28;19909;-79
2022/02/10 19:46:27;;;;;;;;;;;6.90;99.90;;;;;;5054012;28;20432;-79
2022/02/10 19:48:53;;;;;;;;;;;6.90;99.90;;;;;;5036106;28;19935;-79
2022/02/10 19:51:19;;;;;;;;;;;6.70;99.90;;;;;;5036063;28;19909;-79
2022/02/10 19:53:44;;;;;;;;;;;6.70;99.90;;;;;;5054020;28;19914;-80
2022/02/10 19:56:13;;;;;;;;;;;6.60;99.90;;;;;;5053920;28;19951;-79
2022/02/10 19:58:38;;;;;;;;;;;6.70;99.90;;;;;;5054038;28;19909;-79
2022/02/10 20:01:04;;;;;;;;;;;6.60;99.90;;;;;;5053829;28;19920;-79
2022/02/10 20:03:33;;;;;;;;;;;6.60;99.90;;;;;;5053810;28;20376;-80
2022/02/10 20:06:00;;;;;;;;;;;6.50;99.90;;;;;;5053758;28;19909;-79
2022/02/10 20:08:26;;;;;;;;;;;6.40;99.90;;;;;;5053740;28;19963;-79
2022/02/10 20:10:55;;;;;;;;;;;6.30;99.90;;;;;;5053818;28;19909;-80
2022/02/10 20:13:22;;;;;;;;;;;6.20;99.90;;;;;;5053711;28;19996;-79
2022/02/10 20:15:50;;;;;;;;;;;6.10;99.90;;;;;;5053491;28;19924;-79
2022/02/10 20:18:15;;;;;;;;;;;6.40;99.90;;;;;;5053812;28;19991;-79
2022/02/10 20:20:45;;;;;;;;;;;6.40;99.90;;;;;;5053586;28;20011;-79
2022/02/10 20:23:12;;;;;;;;;;;6.30;99.90;;;;;;5035655;28;20365;-79
2022/02/10 20:25:38;;;;;;;;;;;6.10;99.90;;;;;;5053508;28;19913;-79
2022/02/10 20:28:06;;;;;;;;;;;5.90;99.90;;;;;;5053506;28;19909;-79
2022/02/10 20:30:32;;;;;;;;;;;5.70;99.90;;;;;;5053670;28;19908;-79
2022/02/10 20:32:58;;;;;;;;;;;5.70;99.90;;;;;;5053604;28;19913;-80
2022/02/10 20:35:24;;;;;;;;;;;5.60;99.90;;;;;;5053450;28;20429;-79
2022/02/10 20:37:56;;;;;;;;;;;5.60;99.90;;;;;;5053484;28;19915;-79
2022/02/10 20:40:22;;;;;;;;;;;5.60;99.90;;;;;;5035228;28;19913;-79
2022/02/10 20:42:47;;;;;;;;;;;5.70;99.90;;;;;;5053320;28;20403;-80
2022/02/10 20:45:13;;;;;;;;;;;5.70;99.90;;;;;;5036261;28;19916;-79
2022/02/10 20:47:39;;;;;;;;;;;5.60;99.90;;;;;;5057598;28;20289;-79
2022/02/10 20:50:05;;;;;;;;;;;5.60;99.90;;;;;;5057332;28;20262;-79
2022/02/10 20:52:32;;;;;;;;;;;5.80;99.90;;;;;;5039246;28;19908;-80
2022/02/10 20:54:58;;;;;;;;;;;5.90;99.90;;;;;;5057208;28;19928;-79
2022/02/10 20:57:24;;;;;;;;;;;6.00;99.90;;;;;;5057355;28;19975;-79
2022/02/10 20:59:49;;;;;;;;;;;5.70;99.90;;;;;;5057151;28;20381;-80
2022/02/10 21:02:18;;;;;;;;;;;5.40;99.90;;;;;;5057069;28;19909;-79
2022/02/10 21:07:30;;;;;;;;;;;5.40;99.90;;;;;;5056733;28;19916;-79
2022/02/10 21:10:04;;;;;;;;;;;5.20;99.90;;;;;;5038759;28;19908;-79
2022/02/10 21:12:31;;;;;;;;;;;5.10;99.90;;;;;;5056908;28;19992;-79
2022/02/10 21:14:56;;;;;;;;;;;4.90;99.90;;;;;;5056891;28;19963;-79
2022/02/10 21:17:26;;;;;;;;;;;5.20;99.90;;;;;;5035204;28;20378;-79
2022/02/10 21:19:58;;;;;;;;;;;5.40;99.90;;;;;;5036876;28;19920;-79
2022/02/10 21:22:23;;;;;;;;;;;5.50;99.90;;;;;;5035290;28;19916;-79
2022/02/10 21:25:03;;;;;;;;;;;5.30;99.90;;;;;;5036758;28;19909;-79
2022/02/10 21:27:33;;;;;;;;;;;5.00;99.90;;;;;;5036836;28;19913;-79
2022/02/10 21:30:04;;;;;;;;;;;4.90;99.90;;;;;;5035957;28;20190;-79
2022/02/10 21:32:33;;;;;;;;;;;5.00;99.90;;;;;;5036556;28;20354;-79
2022/02/10 21:38:18;;;;;;;;;;;5.00;99.90;;;;;;5020486;28;19948;-79
2022/02/10 21:57:02;;;;;;;;;;;4.60;99.90;;;;;;5036198;28;19909;-79
2022/02/10 22:09:53;;;;;;;;;;;4.40;99.90;;;;;;5035676;28;19916;-79
2022/02/10 22:20:21;;;;;;;;;;;4.10;99.90;;;;;;5055905;28;20377;-79
2022/02/10 22:23:03;;;;;;;;;;;4.20;99.90;;;;;;5055734;28;19913;-79
2022/02/10 22:25:28;;;;;;;;;;;4.30;99.90;;;;;;5037390;28;19916;-79
2022/02/10 22:27:55;;;;;;;;;;;4.40;99.90;;;;;;5055508;28;19909;-79
2022/02/10 22:30:32;;;;;;;;;;;4.70;99.90;;;;;;5055626;28;19955;-79
2022/02/10 22:33:18;;;;;;;;;;;4.60;99.90;;;;;;5037230;28;19935;-79
2022/02/10 22:35:44;;;;;;;;;;;4.30;99.90;;;;;;5055508;28;19951;-79
2022/02/10 22:38:09;;;;;;;;;;;4.20;99.90;;;;;;5055317;28;19908;-79
2022/02/10 22:41:20;;;;;;;;;;;4.00;99.90;;;;;;5055160;28;20276;-79
2022/02/10 22:43:21;;;;;;;;;;;4.10;99.90;;;;;;5044545;28;20024;-79
2022/02/10 22:45:47;;;;;;;;;;;4.00;99.90;;;;;;5055159;28;19909;-80
2022/02/10 22:48:12;;;;;;;;;;;3.90;99.90;;;;;;5055228;28;19909;-79
2022/02/10 22:50:38;;;;;;;;;;;3.80;99.90;;;;;;5055034;28;19909;-79
2022/02/10 22:53:03;;;;;;;;;;;3.90;99.90;;;;;;5054980;28;19909;-79
2022/02/10 22:55:30;;;;;;;;;;;4.00;99.90;;;;;;5055328;28;19909;-79
2022/02/10 22:57:56;;;;;;;;;;;4.10;99.90;;;;;;5055015;28;19915;-79
2022/02/10 23:00:32;;;;;;;;;;;4.10;99.90;;;;;;5054899;28;20007;-79
2022/02/10 23:02:58;;;;;;;;;;;4.00;99.90;;;;;;5054734;28;19917;-80
2022/02/10 23:05:24;;;;;;;;;;;3.80;99.90;;;;;;5055000;28;19959;-79
2022/02/10 23:07:55;;;;;;;;;;;3.70;99.90;;;;;;5054714;28;19909;-79
2022/02/10 23:10:43;;;;;;;;;;;3.60;99.90;;;;;;5053867;28;19913;-79
2022/02/10 23:13:15;;;;;;;;;;;3.70;99.90;;;;;;5036472;28;20365;-79
2022/02/10 23:15:41;;;;;;;;;;;3.70;99.90;;;;;;5054480;28;19942;-79
2022/02/10 23:18:12;;;;;;;;;;;3.70;99.90;;;;;;5054632;28;19916;-79
2022/02/10 23:20:38;;;;;;;;;;;3.60;99.90;;;;;;5054273;28;19920;-79
2022/02/10 23:23:05;;;;;;;;;;;3.70;99.90;;;;;;5054776;28;19948;-80
2022/02/10 23:25:32;;;;;;;;;;;3.80;99.90;;;;;;5054362;28;19909;-80
2022/02/10 23:27:58;;;;;;;;;;;3.90;99.90;;;;;;5054392;28;19936;-79
2022/02/10 23:30:24;;;;;;;;;;;3.90;99.90;;;;;;5054302;28;19940;-79
2022/02/10 23:32:53;;;;;;;;;;;3.80;99.90;;;;;;5054391;28;20011;-79
2022/02/10 23:37:59;;;;;;;;;;;3.60;99.90;;;;;;5054484;28;20452;-79
2022/02/10 23:40:28;;;;;;;;;;;3.90;99.90;;;;;;5054012;28;19999;-79
2022/02/10 23:42:55;;;;;;;;;;;4.00;99.90;;;;;;5054299;28;20385;-79
2022/02/10 23:45:24;;;;;;;;;;;3.80;99.90;;;;;;5054174;28;19913;-79
2022/02/10 23:47:51;;;;;;;;;;;3.50;99.90;;;;;;5053945;28;20001;-80
2022/02/10 23:50:21;;;;;;;;;;;3.30;99.90;;;;;;5053977;28;19931;-79
2022/02/10 23:52:51;;;;;;;;;;;3.40;99.90;;;;;;5053866;28;19909;-79
2022/02/10 23:55:22;;;;;;;;;;;3.60;99.90;;;;;;5054204;28;19909;-79
2022/02/10 23:58:00;;;;;;;;;;;3.70;99.90;;;;;;5053981;28;19912;-79
